VIR8Y KLAX-EGLL
Flight info
| Callsign | VIR8Y |
|---|---|
| Flight time | N/A |
| Altitude | 35000 |
| Route | ORCKA5 LAS DCT BCE DCT MBW DCT DPR DCT GABOV/N0498F370 DCT KEMSA DCT JELCO/M085F370 DCT LIBOR DCT 63N050W/M084F390 63N040W 62N030W 60N020W DCT GOMUP/N0482F390 DCT GINGA DCT KELLY L10 WAL UY53 NUGRA |
| Aircraft | A35K/H-SDE2E3GHIJ3J4J5LM1ORWXY/LB1D1 |
Departure
| Time | 2026-05-04 23:04 |
|---|---|
| Airport | Los Angeles International Airport (KLAX) |
Arrival
| Time | N/A |
|---|---|
| Airport | London Heathrow Airport (EGLL) |
| Time | Latitude | Longitude | Altitude | Speed | Heading |
|---|---|---|---|---|---|
| 2026-05-04 22:10 | 33.94477 | -118.40982 | 99 ft | 0 kts | 261° |
| 2026-05-04 22:49 | 33.94477 | -118.40981 | 99 ft | 0 kts | 261° |
| 2026-05-04 22:50 | 33.94480 | -118.40955 | 99 ft | 4 kts | 261° |
| 2026-05-04 22:50 | 33.94485 | -118.40927 | 97 ft | 4 kts | 244° |
| 2026-05-04 22:50 | 33.94501 | -118.40903 | 97 ft | 4 kts | 213° |
| 2026-05-04 22:50 | 33.94525 | -118.40889 | 101 ft | 4 kts | 191° |
| 2026-05-04 22:51 | 33.94552 | -118.40886 | 99 ft | 4 kts | 179° |
| 2026-05-04 22:51 | 33.94579 | -118.40888 | 98 ft | 4 kts | 171° |
| 2026-05-04 22:51 | 33.94605 | -118.40894 | 99 ft | 4 kts | 168° |
| 2026-05-04 22:51 | 33.94632 | -118.40900 | 99 ft | 4 kts | 173° |
| 2026-05-04 22:52 | 33.94658 | -118.40904 | 98 ft | 4 kts | 172° |
| 2026-05-04 22:52 | 33.94685 | -118.40909 | 99 ft | 4 kts | 169° |
| 2026-05-04 22:52 | 33.94711 | -118.40917 | 99 ft | 4 kts | 162° |
| 2026-05-04 22:52 | 33.94735 | -118.40930 | 100 ft | 4 kts | 137° |
| 2026-05-04 22:53 | 33.94744 | -118.40952 | 98 ft | 4 kts | 90° |
| 2026-05-04 22:53 | 33.94743 | -118.40985 | 98 ft | 4 kts | 80° |
| 2026-05-04 22:53 | 33.94739 | -118.41013 | 100 ft | 1 kts | 83° |
| 2026-05-04 22:53 | 33.94739 | -118.41014 | 100 ft | 0 kts | 83° |
| 2026-05-04 22:57 | 33.94740 | -118.41001 | 102 ft | 4 kts | 84° |
| 2026-05-04 22:58 | 33.94743 | -118.40956 | 99 ft | 8 kts | 84° |
| 2026-05-04 22:58 | 33.94786 | -118.40889 | 102 ft | 11 kts | 22° |
| 2026-05-04 22:58 | 33.94837 | -118.40820 | 102 ft | 12 kts | 74° |
| 2026-05-04 22:58 | 33.94852 | -118.40705 | 100 ft | 17 kts | 83° |
| 2026-05-04 22:59 | 33.94871 | -118.40523 | 101 ft | 24 kts | 83° |
| 2026-05-04 22:59 | 33.94877 | -118.40459 | 103 ft | 4 kts | 83° |
| 2026-05-04 22:59 | 33.94887 | -118.40368 | 101 ft | 14 kts | 83° |
| 2026-05-04 22:59 | 33.94900 | -118.40239 | 103 ft | 17 kts | 83° |
| 2026-05-04 23:00 | 33.94915 | -118.40090 | 102 ft | 19 kts | 83° |
| 2026-05-04 23:00 | 33.94926 | -118.39988 | 99 ft | 11 kts | 81° |
| 2026-05-04 23:00 | 33.94943 | -118.39940 | 101 ft | 1 kts | 56° |
| 2026-05-04 23:00 | 33.94945 | -118.39938 | 101 ft | 0 kts | 46° |
| 2026-05-04 23:02 | 33.94946 | -118.39937 | 101 ft | 1 kts | 46° |
| 2026-05-04 23:02 | 33.94959 | -118.39926 | 120 ft | 4 kts | 28° |
| 2026-05-04 23:02 | 33.95016 | -118.39918 | 100 ft | 9 kts | 356° |
| 2026-05-04 23:02 | 33.95036 | -118.39944 | 101 ft | 4 kts | 284° |
| 2026-05-04 23:03 | 33.95035 | -118.40023 | 102 ft | 19 kts | 263° |
| 2026-05-04 23:03 | 33.94999 | -118.40378 | 103 ft | 76 kts | 263° |
| 2026-05-04 23:03 | 33.94905 | -118.41283 | 105 ft | 139 kts | 263° |
| 2026-05-04 23:03 | 33.94771 | -118.42544 | 584 ft | 156 kts | 263° |
| 2026-05-04 23:04 | 33.94624 | -118.43864 | 1300 ft | 164 kts | 260° |
| 2026-05-04 23:04 | 33.94452 | -118.45325 | 1790 ft | 189 kts | 262° |
| 2026-05-04 23:04 | 33.94289 | -118.46996 | 2176 ft | 213 kts | 262° |
| 2026-05-04 23:04 | 33.94116 | -118.48861 | 2667 ft | 232 kts | 262° |
| 2026-05-04 23:05 | 33.93933 | -118.50809 | 3502 ft | 236 kts | 262° |
| 2026-05-04 23:05 | 33.93748 | -118.52806 | 4260 ft | 244 kts | 263° |
| 2026-05-04 23:05 | 33.93544 | -118.54838 | 4790 ft | 245 kts | 262° |
| 2026-05-04 23:05 | 33.93332 | -118.56880 | 5077 ft | 247 kts | 263° |
| 2026-05-04 23:06 | 33.92979 | -118.58936 | 5417 ft | 256 kts | 251° |
| 2026-05-04 23:06 | 33.92118 | -118.60817 | 6286 ft | 260 kts | 232° |
| 2026-05-04 23:06 | 33.90695 | -118.62175 | 7195 ft | 266 kts | 208° |
| 2026-05-04 23:06 | 33.88870 | -118.62600 | 8180 ft | 274 kts | 180° |
| 2026-05-04 23:07 | 33.87038 | -118.61894 | 9143 ft | 285 kts | 150° |
| 2026-05-04 23:07 | 33.85682 | -118.60120 | 9984 ft | 299 kts | 120° |
| 2026-05-04 23:07 | 33.85175 | -118.57636 | 10518 ft | 320 kts | 90° |
| 2026-05-04 23:07 | 33.85693 | -118.54992 | 10856 ft | 343 kts | 62° |
| 2026-05-04 23:08 | 33.87170 | -118.52616 | 11252 ft | 361 kts | 46° |
| 2026-05-04 23:08 | 33.88886 | -118.50294 | 11626 ft | 381 kts | 49° |
| 2026-05-04 23:08 | 33.90545 | -118.47748 | 12228 ft | 391 kts | 53° |
| 2026-05-04 23:08 | 33.92141 | -118.45056 | 12954 ft | 398 kts | 55° |
| 2026-05-04 23:09 | 33.93697 | -118.42315 | 13668 ft | 405 kts | 55° |
| 2026-05-04 23:09 | 33.95354 | -118.39478 | 14341 ft | 411 kts | 54° |
| 2026-05-04 23:09 | 33.97014 | -118.36631 | 14949 ft | 419 kts | 55° |
| 2026-05-04 23:09 | 33.98689 | -118.33725 | 15530 ft | 427 kts | 55° |
| 2026-05-04 23:10 | 34.00386 | -118.30755 | 16156 ft | 433 kts | 55° |
| 2026-05-04 23:10 | 34.02102 | -118.27749 | 16842 ft | 440 kts | 55° |
| 2026-05-04 23:10 | 34.03822 | -118.24725 | 17579 ft | 445 kts | 56° |
| 2026-05-04 23:10 | 34.05601 | -118.21585 | 18241 ft | 451 kts | 56° |
| 2026-05-04 23:11 | 34.07377 | -118.18447 | 18766 ft | 457 kts | 56° |
| 2026-05-04 23:11 | 34.09159 | -118.15296 | 19289 ft | 463 kts | 56° |
| 2026-05-04 23:11 | 34.11011 | -118.12020 | 19816 ft | 470 kts | 55° |
| 2026-05-04 23:11 | 34.12866 | -118.08743 | 20377 ft | 476 kts | 55° |
| 2026-05-04 23:12 | 34.14720 | -118.05465 | 20904 ft | 482 kts | 56° |
| 2026-05-04 23:12 | 34.16619 | -118.02090 | 21451 ft | 489 kts | 56° |
| 2026-05-04 23:12 | 34.18542 | -117.98667 | 22040 ft | 495 kts | 56° |
| 2026-05-04 23:12 | 34.20484 | -117.95214 | 22584 ft | 501 kts | 56° |
| 2026-05-04 23:13 | 34.22451 | -117.91705 | 23122 ft | 507 kts | 56° |
| 2026-05-04 23:13 | 34.24442 | -117.88154 | 23577 ft | 513 kts | 56° |
| 2026-05-04 23:13 | 34.26451 | -117.84569 | 24061 ft | 519 kts | 56° |
| 2026-05-04 23:13 | 34.28488 | -117.80932 | 24488 ft | 526 kts | 56° |
| 2026-05-04 23:14 | 34.30553 | -117.77248 | 24916 ft | 532 kts | 56° |
| 2026-05-04 23:14 | 34.32639 | -117.73509 | 25396 ft | 538 kts | 57° |
| 2026-05-04 23:14 | 34.34732 | -117.69742 | 25792 ft | 545 kts | 56° |
| 2026-05-04 23:14 | 34.36907 | -117.65949 | 26151 ft | 552 kts | 54° |
| 2026-05-04 23:15 | 34.39192 | -117.62164 | 26577 ft | 558 kts | 54° |
| 2026-05-04 23:15 | 34.41495 | -117.58353 | 26964 ft | 563 kts | 54° |
| 2026-05-04 23:15 | 34.43810 | -117.54500 | 27347 ft | 570 kts | 54° |
| 2026-05-04 23:15 | 34.46144 | -117.50599 | 27849 ft | 574 kts | 54° |
| 2026-05-04 23:16 | 34.48493 | -117.46663 | 28220 ft | 579 kts | 55° |
| 2026-05-04 23:16 | 34.50860 | -117.42685 | 28576 ft | 586 kts | 55° |
| 2026-05-04 23:16 | 34.53252 | -117.38659 | 28941 ft | 591 kts | 55° |
| 2026-05-04 23:16 | 34.55670 | -117.34585 | 29308 ft | 596 kts | 55° |
| 2026-05-04 23:17 | 34.58101 | -117.30482 | 29651 ft | 602 kts | 55° |
| 2026-05-04 23:17 | 34.60550 | -117.26344 | 29979 ft | 607 kts | 55° |
| 2026-05-04 23:17 | 34.62179 | -117.23587 | 30175 ft | 610 kts | 56° |
| 2026-05-04 23:17 | 34.65507 | -117.17951 | 30523 ft | 615 kts | 56° |
| 2026-05-04 23:18 | 34.67159 | -117.15149 | 30684 ft | 617 kts | 56° |
| 2026-05-04 23:18 | 34.69659 | -117.10904 | 30965 ft | 621 kts | 56° |
| 2026-05-04 23:18 | 34.72990 | -117.05247 | 31526 ft | 621 kts | 56° |
| 2026-05-04 23:18 | 34.74686 | -117.02362 | 31772 ft | 622 kts | 56° |
| 2026-05-04 23:19 | 34.77202 | -116.98075 | 32147 ft | 623 kts | 57° |
| 2026-05-04 23:19 | 34.79722 | -116.93777 | 32586 ft | 622 kts | 57° |
| 2026-05-04 23:19 | 34.82237 | -116.89483 | 32956 ft | 623 kts | 57° |
| 2026-05-04 23:19 | 34.84752 | -116.85183 | 33357 ft | 623 kts | 57° |
| 2026-05-04 23:20 | 34.87261 | -116.80888 | 33673 ft | 625 kts | 57° |
| 2026-05-04 23:20 | 34.89779 | -116.76572 | 33990 ft | 626 kts | 57° |
| 2026-05-04 23:20 | 34.92409 | -116.72345 | 34323 ft | 627 kts | 51° |
| 2026-05-04 23:20 | 34.95307 | -116.68378 | 34768 ft | 624 kts | 48° |
| 2026-05-04 23:21 | 34.98251 | -116.64504 | 35215 ft | 621 kts | 47° |
| 2026-05-04 23:21 | 35.01183 | -116.60664 | 35625 ft | 618 kts | 47° |
| 2026-05-04 23:21 | 35.04104 | -116.56827 | 36009 ft | 616 kts | 47° |
| 2026-05-04 23:21 | 35.07019 | -116.52987 | 36309 ft | 616 kts | 47° |
| 2026-05-04 23:22 | 35.09925 | -116.49151 | 36586 ft | 615 kts | 47° |
| 2026-05-04 23:22 | 35.12826 | -116.45314 | 36834 ft | 616 kts | 47° |
| 2026-05-04 23:22 | 35.18636 | -116.37616 | 36893 ft | 616 kts | 47° |
| 2026-05-04 23:23 | 35.24436 | -116.29912 | 36863 ft | 615 kts | 47° |
| 2026-05-04 23:23 | 35.30222 | -116.22208 | 36856 ft | 615 kts | 47° |
| 2026-05-04 23:24 | 35.36010 | -116.14490 | 36849 ft | 615 kts | 47° |
| 2026-05-04 23:24 | 35.41796 | -116.06750 | 36856 ft | 616 kts | 47° |
| 2026-05-04 23:25 | 35.47581 | -115.98995 | 36861 ft | 616 kts | 47° |
| 2026-05-04 23:25 | 35.53363 | -115.91222 | 36855 ft | 617 kts | 47° |
| 2026-05-04 23:26 | 35.59148 | -115.83437 | 36860 ft | 618 kts | 47° |
| 2026-05-04 23:26 | 35.64893 | -115.75680 | 36861 ft | 618 kts | 47° |
| 2026-05-04 23:27 | 35.70659 | -115.67747 | 36865 ft | 618 kts | 48° |
| 2026-05-04 23:27 | 35.76373 | -115.59854 | 36855 ft | 617 kts | 47° |
| 2026-05-04 23:28 | 35.82093 | -115.51957 | 36872 ft | 618 kts | 47° |
| 2026-05-04 23:28 | 35.87763 | -115.44116 | 36858 ft | 616 kts | 47° |
| 2026-05-04 23:29 | 35.93458 | -115.36214 | 36850 ft | 616 kts | 47° |
| 2026-05-04 23:29 | 35.99146 | -115.28303 | 36867 ft | 616 kts | 47° |
| 2026-05-04 23:30 | 36.04843 | -115.20369 | 36848 ft | 617 kts | 47° |
| 2026-05-04 23:30 | 36.10290 | -115.12180 | 36852 ft | 617 kts | 53° |
| 2026-05-04 23:31 | 36.15357 | -115.03615 | 36783 ft | 617 kts | 55° |
| 2026-05-04 23:31 | 36.20339 | -114.94959 | 36786 ft | 617 kts | 55° |
| 2026-05-04 23:32 | 36.25332 | -114.86310 | 36773 ft | 617 kts | 55° |
| 2026-05-04 23:32 | 36.30354 | -114.77680 | 36758 ft | 617 kts | 55° |
| 2026-05-04 23:33 | 36.35375 | -114.69037 | 36736 ft | 616 kts | 55° |
| 2026-05-04 23:33 | 36.40386 | -114.60403 | 36727 ft | 617 kts | 55° |
| 2026-05-04 23:34 | 36.45389 | -114.51760 | 36726 ft | 616 kts | 55° |
| 2026-05-04 23:34 | 36.50374 | -114.43092 | 36726 ft | 617 kts | 55° |
| 2026-05-04 23:35 | 36.55359 | -114.34398 | 36732 ft | 617 kts | 55° |
| 2026-05-04 23:35 | 36.60341 | -114.25697 | 36742 ft | 617 kts | 54° |
| 2026-05-04 23:36 | 36.65321 | -114.16983 | 36735 ft | 617 kts | 55° |
| 2026-05-04 23:36 | 36.70300 | -114.08261 | 36748 ft | 618 kts | 55° |
| 2026-05-04 23:37 | 36.75273 | -113.99507 | 36752 ft | 618 kts | 55° |
| 2026-05-04 23:37 | 36.80236 | -113.90757 | 36758 ft | 618 kts | 55° |
| 2026-05-04 23:38 | 36.85198 | -113.81990 | 36774 ft | 618 kts | 54° |
| 2026-05-04 23:38 | 36.90148 | -113.73222 | 36804 ft | 618 kts | 54° |
| 2026-05-04 23:39 | 36.95087 | -113.64427 | 36820 ft | 618 kts | 54° |
| 2026-05-04 23:39 | 37.00033 | -113.55619 | 36832 ft | 618 kts | 54° |
| 2026-05-04 23:40 | 37.04970 | -113.46802 | 36837 ft | 619 kts | 54° |
| 2026-05-04 23:40 | 37.09903 | -113.37964 | 36777 ft | 620 kts | 54° |
| 2026-05-04 23:41 | 37.14839 | -113.29103 | 36808 ft | 621 kts | 54° |
| 2026-05-04 23:41 | 37.19773 | -113.20227 | 36817 ft | 621 kts | 55° |
| 2026-05-04 23:42 | 37.24669 | -113.11388 | 36840 ft | 621 kts | 55° |
| 2026-05-04 23:42 | 37.29590 | -113.02496 | 36787 ft | 620 kts | 54° |
| 2026-05-04 23:43 | 37.34498 | -112.93602 | 36787 ft | 619 kts | 55° |
| 2026-05-04 23:43 | 37.39381 | -112.84694 | 36798 ft | 619 kts | 54° |
| 2026-05-04 23:44 | 37.44264 | -112.75772 | 36782 ft | 619 kts | 54° |
| 2026-05-04 23:44 | 37.49105 | -112.66905 | 36792 ft | 610 kts | 54° |
| 2026-05-04 23:45 | 37.53934 | -112.58054 | 36789 ft | 617 kts | 54° |
| 2026-05-04 23:45 | 37.58782 | -112.49141 | 36843 ft | 613 kts | 55° |